Time;durP1;ratioP1;P1;durP2;ratioP2;P2;SDS_P1;SDS_P2;PMS_P1;PMS_P2;Temp;Humidity;BMP_temperature;BMP_pressure;BME280_temperature;BME280_humidity;BME280_pressure;Samples;Min_cycle;Max_cycle;Signal;HPM_P1;HPM_P2
2024/03/25 00:02:17;;;;;;;12.45;4.22;;;;;;;;;;5050562;28;20178;-84
2024/03/25 00:04:43;;;;;;;11.25;4.85;;;;;;;;;;5040156;28;20186;-85
2024/03/25 00:07:09;;;;;;;10.13;3.63;;;;;;;;;;5063405;28;20189;-85
2024/03/25 00:09:35;;;;;;;12.88;5.00;;;;;;;;;;5059278;28;20802;-85
2024/03/25 00:12:02;;;;;;;8.53;4.87;;;;;;;;;;5048208;28;20193;-84
2024/03/25 00:14:28;;;;;;;13.52;5.35;;;;;;;;;;5050523;28;20496;-85
2024/03/25 00:16:54;;;;;;;13.80;6.07;;;;;;;;;;5067330;28;20235;-85
2024/03/25 00:19:20;;;;;;;12.20;5.47;;;;;;;;;;5059831;28;20431;-89
2024/03/25 00:21:46;;;;;;;16.95;6.05;;;;;;;;;;5047832;28;20439;-87
2024/03/25 00:24:12;;;;;;;26.20;6.27;;;;;;;;;;5052598;28;20189;-86
2024/03/25 00:26:38;;;;;;;17.40;5.67;;;;;;;;;;5045223;28;20434;-89
2024/03/25 00:29:04;;;;;;;13.10;4.67;;;;;;;;;;5048113;28;20416;-87
2024/03/25 00:31:30;;;;;;;16.80;4.60;;;;;;;;;;5051570;28;20782;-88
2024/03/25 00:33:56;;;;;;;18.17;6.00;;;;;;;;;;5044242;28;21217;-88
2024/03/25 00:36:22;;;;;;;14.17;5.40;;;;;;;;;;5060577;28;20413;-88
2024/03/25 00:38:49;;;;;;;9.85;5.35;;;;;;;;;;5034198;28;20977;-88
2024/03/25 00:41:15;;;;;;;15.50;4.60;;;;;;;;;;5067614;28;20203;-88
2024/03/25 00:43:41;;;;;;;11.70;5.43;;;;;;;;;;5067551;28;20233;-87
2024/03/25 00:46:07;;;;;;;13.20;5.13;;;;;;;;;;5048887;28;20448;-90
2024/03/25 00:48:32;;;;;;;19.03;5.13;;;;;;;;;;5054865;28;20187;-86
2024/03/25 00:50:58;;;;;;;27.17;5.43;;;;;;;;;;5066912;28;20824;-85
2024/03/25 00:53:24;;;;;;;17.10;5.33;;;;;;;;;;5048711;28;20457;-87
2024/03/25 00:55:51;;;;;;;13.00;5.00;;;;;;;;;;5057977;28;20514;-87
2024/03/25 00:58:17;;;;;;;13.48;5.05;;;;;;;;;;5063231;28;20416;-87
2024/03/25 01:00:43;;;;;;;10.67;4.53;;;;;;;;;;5065466;28;20188;-87
2024/03/25 01:03:09;;;;;;;16.37;5.23;;;;;;;;;;5054902;28;20523;-87
2024/03/25 01:05:35;;;;;;;21.53;5.33;;;;;;;;;;5047993;28;20443;-87
2024/03/25 01:08:01;;;;;;;20.63;5.88;;;;;;;;;;5044211;28;20924;-88
2024/03/25 01:10:27;;;;;;;19.38;5.05;;;;;;;;;;5049955;28;20256;-86
2024/03/25 01:12:53;;;;;;;19.03;4.83;;;;;;;;;;5059574;28;20232;-86
2024/03/25 01:15:19;;;;;;;10.30;4.60;;;;;;;;;;5046895;28;20475;-86
2024/03/25 01:17:45;;;;;;;14.60;5.68;;;;;;;;;;5054405;28;20428;-83
2024/03/25 01:20:11;;;;;;;17.73;5.70;;;;;;;;;;5040224;28;20189;-88
2024/03/25 01:22:37;;;;;;;17.92;4.60;;;;;;;;;;5068424;28;20499;-85
2024/03/25 01:25:03;;;;;;;16.00;5.70;;;;;;;;;;5064682;28;20213;-86
2024/03/25 01:27:29;;;;;;;24.67;5.78;;;;;;;;;;5045641;28;20429;-86
2024/03/25 01:29:55;;;;;;;11.50;4.60;;;;;;;;;;5067156;28;20189;-87
2024/03/25 01:32:21;;;;;;;13.80;4.47;;;;;;;;;;5062862;28;20466;-87
2024/03/25 01:34:47;;;;;;;16.60;4.80;;;;;;;;;;5044853;28;20555;-88
2024/03/25 01:37:13;;;;;;;15.23;5.20;;;;;;;;;;5050337;28;20973;-86
2024/03/25 01:39:39;;;;;;;14.10;4.38;;;;;;;;;;5052302;28;21069;-89
2024/03/25 01:42:05;;;;;;;12.35;4.70;;;;;;;;;;5045978;28;20308;-86
2024/03/25 01:44:31;;;;;;;12.77;4.88;;;;;;;;;;5066108;28;20650;-87
2024/03/25 01:46:57;;;;;;;20.50;6.95;;;;;;;;;;5062274;28;20236;-84
2024/03/25 01:49:23;;;;;;;7.83;3.70;;;;;;;;;;5049049;28;20186;-85
2024/03/25 01:51:49;;;;;;;11.35;4.82;;;;;;;;;;5053958;28;20412;-85
2024/03/25 01:54:16;;;;;;;20.85;5.70;;;;;;;;;;5053279;28;20292;-84
2024/03/25 01:56:43;;;;;;;24.38;6.05;;;;;;;;;;5050700;28;20186;-84
2024/03/25 01:59:10;;;;;;;17.83;3.95;;;;;;;;;;5057661;28;20205;-88
2024/03/25 02:01:36;;;;;;;14.82;3.65;;;;;;;;;;5044803;28;20278;-86
2024/03/25 02:04:03;;;;;;;13.80;4.95;;;;;;;;;;5047056;28;20190;-85
2024/03/25 02:06:29;;;;;;;11.57;4.05;;;;;;;;;;5056978;28;20199;-85
2024/03/25 02:08:56;;;;;;;14.25;4.03;;;;;;;;;;5051419;28;20172;-86
2024/03/25 02:11:23;;;;;;;9.10;4.35;;;;;;;;;;5054360;28;20178;-84
2024/03/25 02:13:50;;;;;;;15.18;4.15;;;;;;;;;;5045195;28;20691;-86
2024/03/25 02:16:16;;;;;;;9.57;3.40;;;;;;;;;;5063286;28;20200;-87
2024/03/25 02:18:42;;;;;;;14.43;5.03;;;;;;;;;;5048591;28;20181;-87
2024/03/25 02:21:09;;;;;;;15.43;4.60;;;;;;;;;;5045516;28;20468;-88
2024/03/25 02:23:35;;;;;;;7.57;3.30;;;;;;;;;;5047871;28;20423;-86
2024/03/25 02:26:01;;;;;;;15.98;3.83;;;;;;;;;;5049338;28;20230;-87
2024/03/25 02:28:27;;;;;;;13.67;4.27;;;;;;;;;;5045531;28;20197;-87
2024/03/25 02:30:53;;;;;;;11.47;4.10;;;;;;;;;;5064089;28;20428;-86
2024/03/25 02:33:19;;;;;;;10.80;4.57;;;;;;;;;;5048249;28;20517;-85
2024/03/25 02:35:45;;;;;;;11.93;4.00;;;;;;;;;;5048453;28;20252;-86
2024/03/25 02:38:11;;;;;;;11.90;3.50;;;;;;;;;;5062334;28;20832;-86
2024/03/25 02:40:38;;;;;;;9.15;4.20;;;;;;;;;;5061493;28;20686;-86
2024/03/25 02:43:04;;;;;;;12.98;5.35;;;;;;;;;;5058853;28;20237;-86
2024/03/25 02:45:30;;;;;;;13.77;4.20;;;;;;;;;;5047245;28;20186;-86
2024/03/25 02:47:56;;;;;;;10.85;4.15;;;;;;;;;;5066976;28;20184;-85
2024/03/25 02:50:22;;;;;;;16.15;4.22;;;;;;;;;;5047287;28;20630;-85
2024/03/25 02:52:48;;;;;;;14.10;4.85;;;;;;;;;;5042507;28;20609;-86
2024/03/25 02:55:14;;;;;;;10.73;4.00;;;;;;;;;;5047208;28;20304;-86
2024/03/25 02:57:40;;;;;;;13.73;4.30;;;;;;;;;;5048986;28;20962;-86
2024/03/25 03:00:08;;;;;;;13.53;5.00;;;;;;;;;;5059557;28;20193;-87
2024/03/25 03:02:34;;;;;;;14.73;5.22;;;;;;;;;;5050514;28;20416;-86
2024/03/25 03:05:00;;;;;;;18.23;4.27;;;;;;;;;;5050622;28;20199;-86
2024/03/25 03:07:26;;;;;;;9.40;3.63;;;;;;;;;;5067079;28;20416;-86
2024/03/25 03:09:52;;;;;;;14.80;3.93;;;;;;;;;;5048222;28;20181;-86
2024/03/25 03:12:18;;;;;;;14.77;4.27;;;;;;;;;;5044916;28;20940;-86
2024/03/25 03:14:44;;;;;;;16.98;5.18;;;;;;;;;;5035987;28;20471;-86
2024/03/25 03:17:10;;;;;;;13.67;4.07;;;;;;;;;;5059100;28;20181;-85
2024/03/25 03:19:36;;;;;;;14.50;4.90;;;;;;;;;;5043738;28;20454;-86
2024/03/25 03:22:02;;;;;;;10.13;4.40;;;;;;;;;;5062642;28;20974;-86
2024/03/25 03:24:28;;;;;;;10.30;4.75;;;;;;;;;;5066835;28;20452;-86
2024/03/25 03:26:54;;;;;;;13.18;4.25;;;;;;;;;;5052192;28;20190;-86
2024/03/25 03:29:20;;;;;;;15.00;4.70;;;;;;;;;;5053217;28;20205;-85
2024/03/25 03:31:46;;;;;;;18.37;4.90;;;;;;;;;;5053457;28;20181;-85
2024/03/25 03:34:12;;;;;;;13.67;4.27;;;;;;;;;;5061059;28;20470;-85
2024/03/25 03:36:40;;;;;;;13.17;4.30;;;;;;;;;;5052216;28;20939;-85
2024/03/25 03:39:08;;;;;;;19.23;4.75;;;;;;;;;;5045281;28;20540;-86
2024/03/25 03:41:34;;;;;;;15.57;4.78;;;;;;;;;;5050432;28;20189;-85
2024/03/25 03:44:00;;;;;;;19.93;4.27;;;;;;;;;;5048455;28;20242;-85
2024/03/25 03:46:26;;;;;;;8.43;3.87;;;;;;;;;;5044897;28;20417;-86
2024/03/25 03:48:52;;;;;;;9.07;3.80;;;;;;;;;;5062628;28;20424;-85
2024/03/25 03:51:18;;;;;;;11.03;3.70;;;;;;;;;;5055307;28;20422;-86
2024/03/25 03:53:44;;;;;;;12.10;4.40;;;;;;;;;;5048224;28;20436;-86
2024/03/25 03:56:10;;;;;;;22.17;10.33;;;;;;;;;;5073631;28;20412;-85
2024/03/25 03:58:36;;;;;;;25.30;8.97;;;;;;;;;;5053975;28;20947;-86
2024/03/25 04:01:04;;;;;;;13.20;5.30;;;;;;;;;;5053740;28;20436;-86
2024/03/25 04:03:30;;;;;;;12.18;4.80;;;;;;;;;;5053474;28;20427;-86
2024/03/25 04:05:56;;;;;;;14.87;5.70;;;;;;;;;;5051839;28;20185;-85
2024/03/25 04:08:22;;;;;;;15.50;5.60;;;;;;;;;;5048039;28;20415;-86
2024/03/25 04:10:47;;;;;;;19.50;5.20;;;;;;;;;;5053168;28;20432;-86
2024/03/25 04:13:13;;;;;;;10.70;5.13;;;;;;;;;;5052659;28;20200;-86
2024/03/25 04:15:40;;;;;;;15.60;6.47;;;;;;;;;;5051729;28;20830;-86
2024/03/25 04:18:07;;;;;;;10.40;4.32;;;;;;;;;;5049400;28;20181;-86
2024/03/25 04:20:40;;;;;;;9.73;4.45;;;;;;;;;;5044183;28;20189;-86
2024/03/25 04:23:07;;;;;;;32.28;14.85;;;;;;;;;;5069056;28;20570;-86
2024/03/25 04:25:33;;;;;;;16.23;4.35;;;;;;;;;;5055964;28;20184;-86
2024/03/25 04:27:59;;;;;;;18.60;6.05;;;;;;;;;;5057118;28;20183;-86
2024/03/25 04:30:25;;;;;;;35.67;6.05;;;;;;;;;;5054870;28;20656;-86
2024/03/25 04:32:52;;;;;;;21.00;5.05;;;;;;;;;;5045092;28;20208;-86
2024/03/25 04:35:18;;;;;;;14.68;4.80;;;;;;;;;;5049761;28;20207;-85
2024/03/25 04:37:44;;;;;;;19.02;4.43;;;;;;;;;;5051237;28;20266;-86
2024/03/25 04:40:10;;;;;;;19.73;5.00;;;;;;;;;;5049414;28;20208;-86
2024/03/25 04:42:36;;;;;;;11.65;4.05;;;;;;;;;;5060733;28;20235;-85
2024/03/25 04:45:02;;;;;;;15.33;5.77;;;;;;;;;;5063484;28;20625;-86
2024/03/25 04:47:28;;;;;;;8.18;4.22;;;;;;;;;;5054821;28;20430;-86
2024/03/25 04:49:54;;;;;;;16.13;5.10;;;;;;;;;;5046908;28;20195;-86
2024/03/25 04:52:23;;;;;;;13.00;4.55;;;;;;;;;;5046531;28;20194;-86
2024/03/25 04:54:49;;;;;;;11.32;4.28;;;;;;;;;;5042114;28;20221;-86
2024/03/25 04:57:15;;;;;;;11.60;4.60;;;;;;;;;;5053058;28;20181;-85
2024/03/25 04:59:41;;;;;;;18.85;4.97;;;;;;;;;;5063539;28;20190;-86
2024/03/25 05:02:08;;;;;;;12.23;4.60;;;;;;;;;;5064687;28;20183;-86
2024/03/25 05:04:33;;;;;;;13.07;5.97;;;;;;;;;;5044798;28;20532;-86
2024/03/25 05:06:59;;;;;;;11.20;4.53;;;;;;;;;;5060354;28;20189;-85
2024/03/25 05:09:25;;;;;;;16.20;6.27;;;;;;;;;;5045594;28;20426;-85
2024/03/25 05:11:51;;;;;;;14.67;4.87;;;;;;;;;;5055031;28;20527;-86
2024/03/25 05:14:17;;;;;;;6.80;4.27;;;;;;;;;;5051757;28;20480;-85
2024/03/25 05:16:43;;;;;;;15.77;4.87;;;;;;;;;;5045833;28;20525;-85
2024/03/25 05:19:09;;;;;;;12.77;4.33;;;;;;;;;;5066190;28;20469;-85
2024/03/25 05:21:35;;;;;;;10.03;4.77;;;;;;;;;;5048207;28;20840;-86
2024/03/25 05:24:01;;;;;;;18.63;4.47;;;;;;;;;;5051668;28;20505;-85
2024/03/25 05:26:27;;;;;;;15.68;5.43;;;;;;;;;;5044811;28;20459;-85
2024/03/25 05:28:53;;;;;;;17.20;4.70;;;;;;;;;;5070443;28;20185;-85
2024/03/25 05:31:19;;;;;;;16.67;4.70;;;;;;;;;;5048479;28;20429;-85
2024/03/25 05:33:46;;;;;;;14.60;4.25;;;;;;;;;;5041712;28;20217;-84
2024/03/25 05:36:11;;;;;;;18.35;5.18;;;;;;;;;;5044120;28;20558;-85
2024/03/25 05:38:38;;;;;;;14.27;5.23;;;;;;;;;;5065474;28;20189;-85
2024/03/25 05:41:04;;;;;;;15.55;5.60;;;;;;;;;;5064559;28;20441;-86
2024/03/25 05:43:30;;;;;;;16.08;6.15;;;;;;;;;;5053250;28;20731;-85
2024/03/25 05:45:56;;;;;;;19.38;6.28;;;;;;;;;;5051008;28;20176;-85
2024/03/25 05:48:24;;;;;;;16.33;6.38;;;;;;;;;;5066853;28;20178;-85
2024/03/25 05:51:20;;;;;;;13.95;5.38;;;;;;;;;;5047351;28;20208;-86
2024/03/25 05:53:46;;;;;;;11.65;5.07;;;;;;;;;;5024965;28;20200;-85
2024/03/25 05:56:12;;;;;;;26.15;5.53;;;;;;;;;;5051419;28;20234;-85
2024/03/25 05:58:38;;;;;;;14.43;5.83;;;;;;;;;;5053847;28;20691;-85
2024/03/25 06:01:04;;;;;;;12.03;5.67;;;;;;;;;;5049121;28;20790;-84
2024/03/25 06:03:30;;;;;;;17.00;6.87;;;;;;;;;;5056982;28;20775;-84
2024/03/25 06:05:56;;;;;;;10.43;5.20;;;;;;;;;;5058416;28;20506;-84
2024/03/25 06:08:25;;;;;;;20.63;6.17;;;;;;;;;;5060955;28;20602;-84
2024/03/25 06:10:51;;;;;;;20.02;6.10;;;;;;;;;;5046748;28;20438;-85
2024/03/25 06:13:17;;;;;;;15.15;6.28;;;;;;;;;;5053782;28;20184;-84
2024/03/25 06:15:44;;;;;;;20.52;6.60;;;;;;;;;;5050110;28;20219;-85
2024/03/25 06:18:10;;;;;;;14.82;6.05;;;;;;;;;;5049044;28;20192;-85
2024/03/25 06:20:35;;;;;;;13.10;6.30;;;;;;;;;;5040838;28;20192;-84
2024/03/25 06:23:01;;;;;;;16.33;5.80;;;;;;;;;;5051076;28;20664;-85
2024/03/25 06:25:27;;;;;;;15.32;6.40;;;;;;;;;;5046791;28;20788;-84
2024/03/25 06:27:54;;;;;;;18.65;7.05;;;;;;;;;;5050288;28;20177;-85
2024/03/25 06:35:49;;;;;;;19.10;6.90;;;;;;;;;;5058302;28;20274;-85
2024/03/25 06:38:15;;;;;;;17.90;6.60;;;;;;;;;;5042262;28;20178;-85
2024/03/25 06:40:41;;;;;;;16.83;6.87;;;;;;;;;;5050795;28;20429;-86
2024/03/25 06:43:07;;;;;;;18.00;6.85;;;;;;;;;;5043688;28;20467;-86
2024/03/25 06:45:33;;;;;;;17.48;9.23;;;;;;;;;;5063426;28;20185;-86
2024/03/25 06:47:59;;;;;;;21.45;6.50;;;;;;;;;;5044866;28;20177;-86
2024/03/25 06:50:25;;;;;;;11.93;6.50;;;;;;;;;;5060086;28;20184;-85
2024/03/25 06:52:51;;;;;;;18.97;6.27;;;;;;;;;;5045545;28;20910;-85
2024/03/25 06:55:22;;;;;;;20.45;7.18;;;;;;;;;;5045893;28;20475;-86
2024/03/25 06:57:48;;;;;;;20.48;6.95;;;;;;;;;;5034749;28;20210;-85
2024/03/25 07:00:14;;;;;;;16.00;7.47;;;;;;;;;;5061797;28;20178;-84
2024/03/25 07:02:40;;;;;;;14.95;6.63;;;;;;;;;;5067730;28;20423;-85
2024/03/25 07:05:07;;;;;;;17.98;7.47;;;;;;;;;;5048210;28;20192;-84
2024/03/25 07:07:34;;;;;;;16.95;6.15;;;;;;;;;;5059666;28;20623;-84
2024/03/25 07:10:00;;;;;;;24.00;7.35;;;;;;;;;;5046151;28;20544;-84
2024/03/25 07:12:26;;;;;;;14.48;6.60;;;;;;;;;;5050184;28;20651;-84
2024/03/25 07:14:51;;;;;;;17.50;7.00;;;;;;;;;;5049686;28;20241;-85
2024/03/25 07:17:18;;;;;;;15.70;7.03;;;;;;;;;;5051133;28;20185;-84
2024/03/25 07:19:45;;;;;;;18.63;6.85;;;;;;;;;;5044340;28;20498;-84
2024/03/25 07:22:10;;;;;;;17.58;6.75;;;;;;;;;;5060872;28;20545;-85
2024/03/25 07:24:36;;;;;;;16.03;6.10;;;;;;;;;;5072402;28;20260;-84
2024/03/25 07:27:02;;;;;;;58.60;10.27;;;;;;;;;;5050692;28;20970;-84
2024/03/25 07:29:28;;;;;;;18.10;9.38;;;;;;;;;;5055837;28;20435;-85
2024/03/25 07:31:54;;;;;;;12.13;7.00;;;;;;;;;;5057947;28;20184;-85
2024/03/25 07:34:20;;;;;;;18.07;7.73;;;;;;;;;;5051135;28;20677;-84
2024/03/25 07:36:48;;;;;;;18.50;7.38;;;;;;;;;;5051634;28;20418;-84
2024/03/25 07:39:14;;;;;;;19.02;10.23;;;;;;;;;;5065859;28;20209;-85
2024/03/25 07:41:40;;;;;;;21.23;9.20;;;;;;;;;;5050892;28;20244;-84
2024/03/25 07:44:06;;;;;;;18.98;7.50;;;;;;;;;;5057855;28;20414;-83
2024/03/25 07:46:32;;;;;;;15.63;7.15;;;;;;;;;;5064482;28;20190;-84
2024/03/25 07:48:58;;;;;;;21.90;10.30;;;;;;;;;;5056944;28;20243;-84
2024/03/25 07:51:24;;;;;;;23.83;10.77;;;;;;;;;;5070772;28;20471;-84
2024/03/25 07:53:50;;;;;;;20.83;8.85;;;;;;;;;;5052196;28;20420;-84
2024/03/25 07:56:16;;;;;;;22.35;8.07;;;;;;;;;;5056767;28;20192;-83
2024/03/25 07:58:42;;;;;;;20.30;9.57;;;;;;;;;;5045514;28;20608;-84
2024/03/25 08:01:08;;;;;;;19.05;9.02;;;;;;;;;;5066705;28;20196;-84
2024/03/25 08:03:34;;;;;;;17.50;8.20;;;;;;;;;;5064712;28;20181;-84
2024/03/25 08:06:00;;;;;;;11.50;7.70;;;;;;;;;;5044579;28;20538;-86
2024/03/25 08:08:26;;;;;;;14.20;8.32;;;;;;;;;;5051382;28;20513;-85
2024/03/25 08:10:52;;;;;;;16.83;10.15;;;;;;;;;;5050955;28;20186;-84
2024/03/25 08:13:19;;;;;;;12.10;6.70;;;;;;;;;;5046819;28;20661;-85
2024/03/25 08:15:45;;;;;;;15.55;7.00;;;;;;;;;;5049698;28;20467;-85
2024/03/25 08:18:11;;;;;;;17.98;6.25;;;;;;;;;;5053932;28;20170;-84
2024/03/25 08:20:38;;;;;;;16.20;7.00;;;;;;;;;;5042220;28;20653;-86
2024/03/25 08:23:05;;;;;;;13.05;6.60;;;;;;;;;;5066516;28;20439;-84
2024/03/25 08:25:31;;;;;;;15.65;5.28;;;;;;;;;;5048674;28;20270;-85
2024/03/25 08:27:57;;;;;;;17.45;5.88;;;;;;;;;;5043322;28;20629;-85
2024/03/25 08:30:23;;;;;;;9.20;5.47;;;;;;;;;;5044581;28;20277;-85
2024/03/25 08:32:49;;;;;;;10.83;5.13;;;;;;;;;;5048061;28;20692;-85
2024/03/25 08:35:15;;;;;;;13.77;5.73;;;;;;;;;;5048550;28;20487;-85
2024/03/25 08:37:41;;;;;;;16.20;4.70;;;;;;;;;;5064899;28;20429;-85
2024/03/25 08:40:08;;;;;;;9.07;4.50;;;;;;;;;;5068694;28;20421;-85
2024/03/25 08:42:34;;;;;;;8.80;4.20;;;;;;;;;;5048532;28;20476;-85
2024/03/25 08:45:00;;;;;;;11.73;4.87;;;;;;;;;;5055836;28;20239;-85
2024/03/25 08:47:26;;;;;;;13.60;4.40;;;;;;;;;;5073371;28;20423;-85
2024/03/25 08:49:52;;;;;;;11.15;5.10;;;;;;;;;;5055637;28;20431;-85
2024/03/25 08:52:17;;;;;;;8.93;4.10;;;;;;;;;;5044147;28;20545;-86
2024/03/25 08:54:43;;;;;;;8.97;4.30;;;;;;;;;;5055400;28;20497;-87
2024/03/25 08:57:09;;;;;;;10.23;4.63;;;;;;;;;;5052911;28;20404;-82
2024/03/25 08:59:36;;;;;;;12.27;3.80;;;;;;;;;;5052870;28;20940;-82
2024/03/25 09:02:01;;;;;;;10.15;3.55;;;;;;;;;;5064672;28;20190;-82
2024/03/25 09:04:27;;;;;;;9.27;3.57;;;;;;;;;;5046772;28;20190;-81
2024/03/25 09:06:53;;;;;;;11.47;4.17;;;;;;;;;;5047209;28;20417;-81
2024/03/25 09:12:04;;;;;;;7.67;3.30;;;;;;;;;;5049504;28;20515;-82
2024/03/25 09:14:30;;;;;;;14.53;3.80;;;;;;;;;;5053527;28;20464;-83
2024/03/25 09:16:56;;;;;;;14.00;4.57;;;;;;;;;;5054966;28;20478;-82
2024/03/25 09:19:22;;;;;;;12.07;3.30;;;;;;;;;;5054725;28;20909;-83
2024/03/25 09:21:48;;;;;;;11.57;3.70;;;;;;;;;;5050756;28;20781;-82
2024/03/25 09:24:15;;;;;;;7.27;3.80;;;;;;;;;;5052582;28;20437;-82
2024/03/25 09:26:41;;;;;;;7.80;2.90;;;;;;;;;;5055473;28;20858;-83
2024/03/25 09:29:06;;;;;;;8.57;3.57;;;;;;;;;;5064436;28;20433;-82
2024/03/25 09:31:32;;;;;;;11.23;3.30;;;;;;;;;;5051170;28;20969;-82
2024/03/25 09:33:58;;;;;;;8.40;3.90;;;;;;;;;;5045539;28;20471;-82
2024/03/25 09:36:25;;;;;;;8.13;3.73;;;;;;;;;;5048550;28;20528;-82
2024/03/25 09:38:52;;;;;;;8.73;3.40;;;;;;;;;;5045815;28;21025;-83
2024/03/25 09:41:19;;;;;;;9.00;3.13;;;;;;;;;;5062125;28;20436;-82
2024/03/25 09:43:49;;;;;;;5.53;3.27;;;;;;;;;;5063968;28;20472;-81
2024/03/25 09:46:16;;;;;;;5.53;2.80;;;;;;;;;;5048576;28;20424;-82
2024/03/25 09:48:42;;;;;;;5.17;2.70;;;;;;;;;;5048619;28;20420;-82
2024/03/25 09:51:10;;;;;;;7.77;3.00;;;;;;;;;;5046560;28;20434;-81
2024/03/25 09:53:36;;;;;;;9.30;3.50;;;;;;;;;;5049898;28;20499;-82
2024/03/25 09:56:03;;;;;;;4.40;2.50;;;;;;;;;;5045440;28;20875;-82
2024/03/25 09:58:29;;;;;;;5.30;2.63;;;;;;;;;;5048485;28;20410;-83
2024/03/25 10:00:55;;;;;;;6.43;2.70;;;;;;;;;;5041210;28;20472;-81
2024/03/25 10:03:22;;;;;;;4.47;3.10;;;;;;;;;;5045557;28;20435;-82
2024/03/25 10:05:48;;;;;;;3.93;2.57;;;;;;;;;;5052745;28;20440;-82
2024/03/25 10:08:14;;;;;;;5.80;3.30;;;;;;;;;;5051496;28;20433;-82
2024/03/25 10:10:40;;;;;;;9.13;3.63;;;;;;;;;;5045103;28;20788;-83
2024/03/25 10:13:06;;;;;;;7.43;3.30;;;;;;;;;;5048684;28;20486;-83
2024/03/25 10:15:32;;;;;;;11.33;2.80;;;;;;;;;;5048121;28;20494;-83
2024/03/25 10:17:58;;;;;;;11.33;2.80;;;;;;;;;;5064487;28;20433;-82
2024/03/25 10:20:25;;;;;;;5.53;2.40;;;;;;;;;;5058630;28;20430;-81
2024/03/25 10:22:51;;;;;;;5.73;2.63;;;;;;;;;;5051427;28;20430;-82
2024/03/25 10:25:20;;;;;;;4.60;2.50;;;;;;;;;;5050789;28;20431;-81
2024/03/25 10:28:07;;;;;;;6.53;2.90;;;;;;;;;;5066635;28;20467;-82
2024/03/25 10:30:33;;;;;;;5.77;3.17;;;;;;;;;;5046729;28;20413;-82
2024/03/25 10:33:02;;;;;;;4.30;2.10;;;;;;;;;;5051174;28;20534;-81
2024/03/25 10:35:29;;;;;;;3.90;2.20;;;;;;;;;;5049553;28;20496;-81
2024/03/25 10:37:56;;;;;;;7.23;2.23;;;;;;;;;;5068062;28;20503;-81
2024/03/25 10:40:23;;;;;;;8.97;2.23;;;;;;;;;;5047734;28;20427;-82
2024/03/25 10:42:49;;;;;;;7.17;2.97;;;;;;;;;;5045781;28;20990;-82
2024/03/25 10:45:16;;;;;;;8.90;2.27;;;;;;;;;;5050920;28;20432;-81
2024/03/25 10:47:42;;;;;;;6.43;2.40;;;;;;;;;;5046439;28;20419;-81
2024/03/25 10:50:10;;;;;;;5.27;1.83;;;;;;;;;;5044763;28;20976;-82
2024/03/25 10:52:37;;;;;;;5.37;2.93;;;;;;;;;;5046628;28;20425;-81
2024/03/25 10:55:04;;;;;;;2.93;1.40;;;;;;;;;;5052494;28;20475;-82
2024/03/25 10:57:30;;;;;;;5.47;2.70;;;;;;;;;;5049876;28;20926;-82
2024/03/25 10:59:57;;;;;;;5.70;2.20;;;;;;;;;;5044367;28;20407;-81
2024/03/25 11:02:24;;;;;;;3.60;1.80;;;;;;;;;;5046645;28;21071;-81
2024/03/25 11:04:51;;;;;;;4.67;1.97;;;;;;;;;;5044586;28;20383;-81
2024/03/25 11:07:17;;;;;;;5.67;1.97;;;;;;;;;;5057771;28;20444;-81
2024/03/25 11:09:43;;;;;;;6.10;1.77;;;;;;;;;;5051941;28;20433;-80
2024/03/25 11:12:13;;;;;;;4.13;1.90;;;;;;;;;;5048430;28;20916;-82
2024/03/25 11:14:39;;;;;;;4.00;1.63;;;;;;;;;;5061371;28;20464;-82
2024/03/25 11:17:18;;;;;;;3.50;2.27;;;;;;;;;;5047759;28;20420;-81
2024/03/25 11:19:44;;;;;;;3.40;1.40;;;;;;;;;;5047446;28;20486;-82
2024/03/25 11:22:10;;;;;;;6.00;1.50;;;;;;;;;;5042004;28;20399;-83
2024/03/25 11:24:37;;;;;;;5.60;1.90;;;;;;;;;;5045736;28;20415;-83
2024/03/25 11:27:03;;;;;;;4.83;1.80;;;;;;;;;;5047784;28;20766;-83
2024/03/25 11:29:30;;;;;;;5.77;1.83;;;;;;;;;;5049834;28;20527;-82
2024/03/25 11:31:56;;;;;;;7.50;2.47;;;;;;;;;;5044640;28;20881;-84
2024/03/25 11:34:22;;;;;;;3.67;1.80;;;;;;;;;;5061046;28;20426;-83
2024/03/25 11:36:49;;;;;;;3.37;1.50;;;;;;;;;;5047571;28;20499;-83
2024/03/25 11:39:15;;;;;;;2.70;1.53;;;;;;;;;;5039922;28;20411;-82
2024/03/25 11:41:41;;;;;;;3.53;1.33;;;;;;;;;;5060776;28;20430;-82
2024/03/25 11:44:10;;;;;;;3.83;1.60;;;;;;;;;;5049633;28;20417;-83
2024/03/25 11:46:37;;;;;;;2.47;1.20;;;;;;;;;;5060170;28;20435;-83
2024/03/25 11:49:06;;;;;;;3.43;1.67;;;;;;;;;;5044349;28;20426;-82
2024/03/25 11:51:33;;;;;;;7.13;2.03;;;;;;;;;;5046205;28;20782;-82
2024/03/25 11:53:59;;;;;;;1.70;1.07;;;;;;;;;;5053554;28;20397;-78
2024/03/25 11:56:27;;;;;;;2.50;1.40;;;;;;;;;;5046678;28;20459;-80
2024/03/25 11:58:53;;;;;;;2.90;1.50;;;;;;;;;;5043551;28;20417;-80
2024/03/25 12:01:18;;;;;;;2.00;1.20;;;;;;;;;;5047235;28;20913;-80
2024/03/25 12:03:44;;;;;;;3.70;1.27;;;;;;;;;;5064459;28;20387;-80
2024/03/25 12:06:10;;;;;;;2.47;1.30;;;;;;;;;;5045160;28;20499;-80
2024/03/25 12:11:17;;;;;;;3.47;1.63;;;;;;;;;;5049882;28;20979;-80
2024/03/25 12:11:22;;;;;;;1.63;1.07;;;;;;;;;;5052006;28;20445;-80
2024/03/25 12:13:51;;;;;;;2.60;1.33;;;;;;;;;;5055299;28;20904;-80
2024/03/25 12:16:17;;;;;;;2.20;1.17;;;;;;;;;;5046999;28;20440;-80
2024/03/25 12:18:44;;;;;;;3.50;1.23;;;;;;;;;;5052814;28;20441;-82
2024/03/25 12:21:11;;;;;;;3.77;1.30;;;;;;;;;;5043646;28;20459;-82
2024/03/25 12:23:37;;;;;;;2.60;1.33;;;;;;;;;;5046362;28;20462;-81
2024/03/25 12:26:03;;;;;;;4.00;1.20;;;;;;;;;;5044538;28;20415;-82
2024/03/25 12:28:31;;;;;;;2.37;1.30;;;;;;;;;;5054416;28;20424;-81
2024/03/25 12:30:57;;;;;;;3.10;1.33;;;;;;;;;;5049190;28;20420;-80
2024/03/25 12:33:24;;;;;;;5.07;1.40;;;;;;;;;;5042510;28;20516;-80
2024/03/25 12:35:50;;;;;;;2.40;1.20;;;;;;;;;;5054866;28;20466;-80
2024/03/25 12:38:26;;;;;;;1.93;1.17;;;;;;;;;;5055750;28;20857;-82
2024/03/25 12:40:54;;;;;;;6.10;1.67;;;;;;;;;;5052872;28;20415;-83
2024/03/25 12:43:20;;;;;;;4.43;1.80;;;;;;;;;;5048377;28;20482;-82
2024/03/25 12:45:47;;;;;;;3.00;1.77;;;;;;;;;;5063615;28;20461;-84
2024/03/25 12:48:13;;;;;;;4.50;1.83;;;;;;;;;;5045392;28;20858;-84
2024/03/25 12:50:39;;;;;;;2.70;1.50;;;;;;;;;;5053087;28;20418;-83
2024/03/25 12:53:05;;;;;;;2.10;1.37;;;;;;;;;;5053683;28;20395;-83
2024/03/25 12:55:31;;;;;;;4.30;1.40;;;;;;;;;;5046067;28;20466;-84
2024/03/25 12:57:57;;;;;;;4.23;1.67;;;;;;;;;;5049927;28;20428;-83
2024/03/25 13:00:23;;;;;;;3.00;1.37;;;;;;;;;;5044485;28;20429;-82
2024/03/25 13:02:50;;;;;;;3.63;1.30;;;;;;;;;;5054602;28;20439;-83
2024/03/25 13:05:16;;;;;;;4.87;1.70;;;;;;;;;;5049777;28;20424;-83
2024/03/25 13:07:42;;;;;;;3.83;1.50;;;;;;;;;;5041631;28;20386;-82
2024/03/25 13:10:08;;;;;;;3.33;1.50;;;;;;;;;;5048140;28;20486;-82
2024/03/25 13:12:34;;;;;;;2.70;1.40;;;;;;;;;;5052293;28;20435;-82
2024/03/25 13:15:00;;;;;;;2.27;1.40;;;;;;;;;;5049203;28;20554;-82
2024/03/25 13:17:26;;;;;;;2.60;1.57;;;;;;;;;;5041625;28;20440;-81
2024/03/25 13:19:52;;;;;;;2.97;1.70;;;;;;;;;;5062517;28;20424;-82
2024/03/25 13:22:18;;;;;;;1.47;1.23;;;;;;;;;;5051456;28;20478;-82
2024/03/25 13:24:44;;;;;;;2.07;1.50;;;;;;;;;;5047576;28;20446;-83
2024/03/25 13:27:10;;;;;;;5.60;2.10;;;;;;;;;;5047617;28;20481;-82
2024/03/25 13:29:37;;;;;;;3.70;1.70;;;;;;;;;;5051742;28;20443;-82
2024/03/25 13:32:03;;;;;;;2.07;1.47;;;;;;;;;;5047819;28;20436;-82
2024/03/25 13:34:29;;;;;;;4.40;1.93;;;;;;;;;;5062016;28;20446;-82
2024/03/25 13:36:55;;;;;;;2.63;1.70;;;;;;;;;;5043912;28;20820;-82
2024/03/25 13:39:21;;;;;;;2.40;1.40;;;;;;;;;;5045612;28;20433;-83
2024/03/25 13:41:48;;;;;;;12.23;2.30;;;;;;;;;;5050313;28;20440;-82
2024/03/25 13:44:14;;;;;;;4.37;1.73;;;;;;;;;;5060029;28;20983;-81
2024/03/25 13:46:40;;;;;;;2.27;1.50;;;;;;;;;;5044514;28;20424;-82
2024/03/25 13:49:06;;;;;;;4.00;1.50;;;;;;;;;;5039465;28;20498;-82
2024/03/25 13:51:31;;;;;;;4.13;1.77;;;;;;;;;;5048277;28;20453;-81
2024/03/25 13:53:58;;;;;;;4.40;1.67;;;;;;;;;;5046140;28;20472;-81
2024/03/25 13:56:24;;;;;;;2.10;1.57;;;;;;;;;;5041376;28;20578;-81
2024/03/25 13:58:50;;;;;;;3.83;1.50;;;;;;;;;;5045911;28;20443;-82
2024/03/25 14:01:16;;;;;;;5.53;2.00;;;;;;;;;;5045989;28;20435;-82
2024/03/25 14:03:42;;;;;;;6.40;1.87;;;;;;;;;;5049653;28;20682;-82
2024/03/25 14:06:08;;;;;;;5.43;1.50;;;;;;;;;;5050683;28;20414;-83
2024/03/25 14:08:34;;;;;;;3.33;1.57;;;;;;;;;;5059220;28;20744;-82
2024/03/25 14:11:00;;;;;;;5.50;1.93;;;;;;;;;;5044850;28;20422;-81
2024/03/25 14:13:26;;;;;;;3.07;1.90;;;;;;;;;;5045719;28;20532;-81
2024/03/25 14:15:52;;;;;;;3.40;1.90;;;;;;;;;;5040944;28;20800;-82
2024/03/25 14:18:18;;;;;;;4.77;2.20;;;;;;;;;;5047354;28;20387;-81
2024/03/25 14:20:44;;;;;;;3.20;1.40;;;;;;;;;;5047550;28;20996;-81
2024/03/25 14:23:10;;;;;;;5.27;2.23;;;;;;;;;;5052444;28;20855;-83
2024/03/25 14:25:36;;;;;;;6.33;1.87;;;;;;;;;;5044025;28;20406;-82
2024/03/25 14:28:03;;;;;;;3.63;1.80;;;;;;;;;;5048234;28;20406;-82
2024/03/25 14:30:29;;;;;;;4.00;1.90;;;;;;;;;;5048208;28;20430;-83
2024/03/25 14:32:55;;;;;;;4.63;2.10;;;;;;;;;;5045400;28;20550;-82
2024/03/25 14:35:21;;;;;;;4.43;2.03;;;;;;;;;;5049948;28;20442;-83
2024/03/25 14:37:47;;;;;;;4.30;1.70;;;;;;;;;;5043105;28;20467;-82
2024/03/25 14:40:14;;;;;;;2.50;1.13;;;;;;;;;;5048333;28;20424;-82